Time;durP1;ratioP1;P1;durP2;ratioP2;P2;SDS_P1;SDS_P2;PMS_P1;PMS_P2;Temp;Humidity;BMP_temperature;BMP_pressure;BME280_temperature;BME280_humidity;BME280_pressure;Samples;Min_cycle;Max_cycle;Signal;HPM_P1;HPM_P2
2022/12/14 00:01:12;;;;;;;13.70;8.80;;;3.70;70.10;;;;;;6338460;22;20007;-68
2022/12/14 00:03:38;;;;;;;14.03;9.60;;;3.70;70.40;;;;;;6338475;22;20026;-69
2022/12/14 00:06:21;;;;;;;13.83;9.27;;;3.70;70.60;;;;;;6338420;22;20441;-68
2022/12/14 00:08:49;;;;;;;13.17;9.13;;;3.70;70.80;;;;;;6338546;22;20002;-68
2022/12/14 00:11:16;;;;;;;13.80;9.10;;;3.70;70.80;;;;;;6338836;22;20011;-68
2022/12/14 00:13:42;;;;;;;14.07;9.80;;;3.70;70.60;;;;;;6338405;22;20444;-68
2022/12/14 00:16:14;;;;;;;13.63;8.80;;;3.70;70.70;;;;;;6336836;22;19999;-68
2022/12/14 00:18:41;;;;;;;12.77;8.40;;;3.70;70.80;;;;;;6338335;22;20007;-68
2022/12/14 00:21:09;;;;;;;11.93;8.17;;;3.70;70.70;;;;;;6338684;22;19999;-68
2022/12/14 00:23:36;;;;;;;12.70;8.17;;;3.70;70.40;;;;;;6338507;22;20005;-68
2022/12/14 00:26:17;;;;;;;11.40;8.20;;;3.70;69.90;;;;;;6338666;22;20052;-68
2022/12/14 00:28:44;;;;;;;11.53;8.17;;;3.70;70.10;;;;;;6338914;22;20006;-68
2022/12/14 00:31:10;;;;;;;14.77;8.80;;;3.70;70.00;;;;;;6338330;22;20003;-68
2022/12/14 00:33:37;;;;;;;12.40;8.40;;;3.80;70.10;;;;;;6339228;22;20444;-68
2022/12/14 00:36:04;;;;;;;11.47;8.40;;;3.70;70.00;;;;;;6340315;22;20373;-68
2022/12/14 00:38:30;;;;;;;11.40;8.57;;;3.70;70.00;;;;;;6338834;22;20006;-68
2022/12/14 00:40:56;;;;;;;12.20;8.73;;;3.70;70.10;;;;;;6339970;22;19999;-68
2022/12/14 00:43:22;;;;;;;13.70;9.00;;;3.70;70.20;;;;;;6340057;22;20048;-68
2022/12/14 00:45:48;;;;;;;14.07;9.63;;;3.80;70.40;;;;;;6340449;22;19994;-68
2022/12/14 00:48:14;;;;;;;12.07;8.47;;;3.70;70.60;;;;;;6340501;22;20075;-68
2022/12/14 00:50:40;;;;;;;14.97;9.70;;;3.80;70.70;;;;;;6340483;22;21869;-69
2022/12/14 00:53:06;;;;;;;16.63;10.50;;;3.80;70.60;;;;;;6340340;22;20003;-68
2022/12/14 00:55:39;;;;;;;13.20;9.47;;;3.80;70.70;;;;;;6340438;22;20026;-68
2022/12/14 00:58:05;;;;;;;13.63;9.27;;;3.70;70.80;;;;;;6340282;22;20452;-68
2022/12/14 01:00:31;;;;;;;13.90;8.97;;;3.80;70.90;;;;;;6340267;22;20052;-68
2022/12/14 01:02:57;;;;;;;10.77;7.50;;;3.80;70.80;;;;;;6340123;22;20015;-68
2022/12/14 01:05:22;;;;;;;13.03;8.50;;;3.80;70.70;;;;;;6340474;22;20002;-68
2022/12/14 01:07:48;;;;;;;10.03;7.00;;;3.70;70.70;;;;;;6339788;22;20078;-68
2022/12/14 01:10:14;;;;;;;11.47;7.90;;;3.70;70.60;;;;;;6340145;22;20002;-68
2022/12/14 01:12:39;;;;;;;11.63;7.80;;;3.70;70.60;;;;;;6339753;22;20060;-68
2022/12/14 01:15:05;;;;;;;10.93;6.90;;;3.70;70.60;;;;;;6339930;22;19995;-68
2022/12/14 01:17:31;;;;;;;11.80;8.37;;;3.70;70.00;;;;;;6340123;22;20030;-68
2022/12/14 01:19:57;;;;;;;11.60;7.80;;;3.70;69.80;;;;;;6340237;22;19995;-68
2022/12/14 01:22:22;;;;;;;10.83;7.63;;;3.70;69.70;;;;;;6340174;22;19999;-68
2022/12/14 01:24:48;;;;;;;12.37;8.43;;;3.80;69.80;;;;;;6340231;22;20003;-68
2022/12/14 01:27:14;;;;;;;13.73;9.13;;;3.80;70.00;;;;;;6338673;22;20432;-68
2022/12/14 01:29:40;;;;;;;12.83;8.80;;;3.70;70.00;;;;;;6339740;22;20001;-69
2022/12/14 01:32:06;;;;;;;11.70;9.00;;;3.80;70.10;;;;;;6340188;22;20015;-68
2022/12/14 01:34:32;;;;;;;11.50;8.37;;;3.80;70.10;;;;;;6338964;22;19999;-69
2022/12/14 01:36:57;;;;;;;14.23;9.40;;;3.80;70.20;;;;;;6336654;22;20429;-68
2022/12/14 01:39:23;;;;;;;14.10;9.13;;;3.70;70.20;;;;;;6336446;22;20009;-68
2022/12/14 01:41:51;;;;;;;13.97;8.83;;;3.80;70.50;;;;;;6339566;22;20006;-68
2022/12/14 01:44:17;;;;;;;11.67;8.23;;;3.70;70.30;;;;;;6339693;22;20026;-69
2022/12/14 01:47:21;;;;;;;11.93;8.83;;;3.80;70.50;;;;;;6339677;22;19998;-68
2022/12/14 01:50:06;;;;;;;13.60;8.73;;;3.70;70.40;;;;;;6244349;23;20127;-68
2022/12/14 01:52:39;;;;;;;11.57;8.00;;;3.80;70.50;;;;;;6332150;22;20314;-68
2022/12/14 01:55:11;;;;;;;12.40;8.57;;;3.70;70.50;;;;;;6339766;22;20007;-68
2022/12/14 01:57:42;;;;;;;12.48;8.25;;;3.70;70.60;;;;;;6339208;22;19999;-69
2022/12/14 02:00:12;;;;;;;11.03;8.13;;;3.80;70.70;;;;;;6336305;22;19999;-68
2022/12/14 02:02:42;;;;;;;11.63;7.80;;;3.80;70.70;;;;;;6335977;22;20064;-68
2022/12/14 02:05:09;;;;;;;11.17;8.10;;;;;;;;;;6338429;22;20075;-68
2022/12/14 02:07:35;;;;;;;13.40;8.50;;;;;;;;;;6339823;22;19995;-68
2022/12/14 02:10:03;;;;;;;14.67;8.37;;;;;;;;;;6339547;22;20003;-68
2022/12/14 02:12:31;;;;;;;12.63;8.60;;;;;;;;;;6339367;22;20034;-68
2022/12/14 02:14:58;;;;;;;10.93;7.50;;;;;;;;;;6339627;22;20020;-70
2022/12/14 02:17:24;;;;;;;11.63;8.47;;;;;;;;;;6339378;22;20056;-68
2022/12/14 02:19:50;;;;;;;11.80;8.10;;;;;;;;;;6339397;22;20010;-68
2022/12/14 02:22:19;;;;;;;10.77;7.80;;;;;;;;;;6339229;22;20007;-68
2022/12/14 02:25:17;;;;;;;11.33;7.80;;;;;;;;;;6339597;22;19999;-68
2022/12/14 02:27:49;;;;;;;12.10;8.50;;;;;;;;;;6287394;22;20006;-68
2022/12/14 02:30:23;;;;;;;13.60;8.40;;;;;;;;;;6339386;22;20440;-68
2022/12/14 02:32:54;;;;;;;11.90;8.30;;;;;;;;;;6339305;22;20007;-68
2022/12/14 02:35:23;;;;;;;14.33;8.13;;;;;;;;;;6338726;22;19999;-68
2022/12/14 02:37:49;;;;;;;12.37;8.60;;;;;;;;;;6339188;22;20007;-68
2022/12/14 02:40:18;;;;;;;11.40;7.87;;;;;;;;;;6364219;22;20324;-68
2022/12/14 02:42:53;;;;;;;13.57;8.60;;;;;;;;;;6339006;22;20073;-68
2022/12/14 02:45:25;;;;;;;11.20;7.53;;;;;;;;;;6339343;22;20033;-68
2022/12/14 02:47:54;;;;;;;14.60;8.68;;;;;;;;;;6339344;22;20368;-68
2022/12/14 02:50:27;;;;;;;12.20;8.53;;;;;;;;;;6339276;22;20371;-69
2022/12/14 02:52:52;;;;;;;;;;;;;;;;;;6339964;22;20006;-68
2022/12/14 02:55:25;;;;;;;13.60;8.53;;;;;;;;;;6339448;22;19913;-68
2022/12/14 02:57:57;;;;;;;16.10;8.77;;;;;;;;;;6339249;22;20001;-68
2022/12/14 03:00:24;;;;;;;12.73;9.18;;;;;;;;;;6339325;22;20332;-68
2022/12/14 03:02:51;;;;;;;12.03;8.23;;;;;;;;;;6338966;22;20015;-68
2022/12/14 03:05:17;;;;;;;16.43;8.93;;;;;;;;;;6339338;22;20026;-68
2022/12/14 03:07:50;;;;;;;13.27;9.07;;;;;;;;;;6339028;22;20436;-68
2022/12/14 03:10:24;;;;;;;15.73;8.10;;;;;;;;;;6338652;22;20009;-68
2022/12/14 03:12:54;;;;;;;14.50;9.17;;;;;;;;;;6339247;22;20375;-68
2022/12/14 03:15:21;;;;;;;13.93;8.33;;;;;;;;;;6339156;22;20097;-68
2022/12/14 03:17:51;;;;;;;13.20;8.17;;;;;;;;;;6339288;22;20070;-68
2022/12/14 03:20:21;;;;;;;13.03;8.30;;;;;;;;;;6339233;22;20048;-68
2022/12/14 03:22:52;;;;;;;11.37;8.73;;;;;;;;;;6339131;22;20002;-68
2022/12/14 03:25:21;;;;;;;16.30;8.67;;;;;;;;;;6338944;22;20006;-68
2022/12/14 03:28:01;;;;;;;14.93;9.17;;;;;;;;;;6339254;22;20007;-69
2022/12/14 03:30:29;;;;;;;13.57;8.70;;;;;;;;;;6339058;22;20009;-68
2022/12/14 03:32:59;;;;;;;13.60;8.53;;;;;;;;;;6338906;22;20013;-68
2022/12/14 03:35:28;;;;;;;13.20;8.67;;;;;;;;;;6339065;22;19999;-68
2022/12/14 03:37:54;;;;;;;12.00;8.43;;;;;;;;;;6338715;22;20021;-68
2022/12/14 03:40:23;;;;;;;13.90;8.10;;;;;;;;;;6338792;22;20429;-68
2022/12/14 03:43:01;;;;;;;12.53;8.83;;;;;;;;;;6339059;22;19995;-68
2022/12/14 03:45:30;;;;;;;11.97;8.73;;;;;;;;;;6363623;22;20014;-68
2022/12/14 03:48:15;;;;;;;12.67;9.00;;;;;;;;;;6339249;22;20082;-68
2022/12/14 03:50:45;;;;;;;12.77;8.40;;;;;;;;;;6338772;22;19995;-68
2022/12/14 03:53:11;;;;;;;13.37;7.80;;;;;;;;;;6338546;22;20038;-68
2022/12/14 03:55:37;;;;;;;12.57;7.87;;;;;;;;;;6338759;22;19999;-68
2022/12/14 03:58:22;;;;;;;12.60;8.17;;;;;;;;;;6338985;22;20058;-68
2022/12/14 04:00:54;;;;;;;11.03;7.97;;;;;;;;;;6338667;22;20137;-68
2022/12/14 04:03:23;;;;;;;11.25;7.85;;;;;;;;;;6338587;22;20364;-68
2022/12/14 04:05:53;;;;;;;12.47;8.27;;;;;;;;;;6363095;22;20007;-68
2022/12/14 04:08:25;;;;;;;13.00;8.77;;;;;;;;;;6338788;22;19995;-68
2022/12/14 04:19:18;;;;;;;12.20;8.23;;;;;;;;;;6338926;22;20068;-68
2022/12/14 04:21:50;;;;;;;14.90;8.93;;;;;;;;;;6338577;22;20452;-68
2022/12/14 04:27:04;;;;;;;13.23;8.50;;;;;;;;;;6338427;22;19937;-68
2022/12/14 04:32:20;;;;;;;12.70;8.33;;;;;;;;;;6338284;22;20159;-68
2022/12/14 04:34:49;;;;;;;13.60;8.80;;;;;;;;;;6338540;22;20010;-68
2022/12/14 04:37:18;;;;;;;12.43;7.97;;;;;;;;;;6338678;22;20002;-68
2022/12/14 04:39:56;;;;;;;11.93;8.27;;;;;;;;;;6338683;22;19994;-68
2022/12/14 04:42:25;;;;;;;12.63;8.70;;;;;;;;;;6336989;22;20003;-68
2022/12/14 04:44:56;;;;;;;12.73;8.00;;;;;;;;;;6338630;22;20041;-68
2022/12/14 04:47:24;;;;;;;11.97;8.40;;;;;;;;;;6338337;22;20485;-68
2022/12/14 04:49:53;;;;;;;11.60;7.93;;;;;;;;;;6338507;22;20493;-69
2022/12/14 04:52:31;;;;;;;11.80;8.10;;;;;;;;;;6338336;22;20014;-68
2022/12/14 04:55:11;;;;;;;12.07;7.83;;;;;;;;;;6338583;22;20004;-68
2022/12/14 04:57:37;;;;;;;9.60;6.73;;;;;;;;;;6338377;22;19999;-68
2022/12/14 05:00:04;;;;;;;8.30;5.37;;;;;;;;;;6338439;22;20005;-68
2022/12/14 05:02:38;;;;;;;7.77;5.40;;;;;;;;;;6338217;22;20018;-68
2022/12/14 05:05:04;;;;;;;9.57;6.43;;;;;;;;;;6362947;22;20003;-68
2022/12/14 05:07:30;;;;;;;8.27;5.83;;;;;;;;;;6338225;22;20003;-69
2022/12/14 05:09:59;;;;;;;7.50;5.47;;;;;;;;;;6338311;22;20375;-68
2022/12/14 05:12:31;;;;;;;8.57;6.00;;;;;;;;;;6337973;22;20007;-68
2022/12/14 05:15:12;;;;;;;7.70;5.85;;;;;;;;;;6338284;22;20047;-68
2022/12/14 05:17:38;;;;;;;6.57;4.93;;;;;;;;;;6338443;22;19999;-68
2022/12/14 05:20:05;;;;;;;8.87;5.80;;;;;;;;;;6338305;22;19999;-69
2022/12/14 05:22:31;;;;;;;10.33;6.57;;;;;;;;;;6340082;22;20013;-68
2022/12/14 05:24:57;;;;;;;10.10;7.33;;;;;;;;;;6339861;22;20002;-69
2022/12/14 05:27:23;;;;;;;11.40;7.73;;;;;;;;;;6340038;22;20010;-68
2022/12/14 05:29:49;;;;;;;11.33;7.80;;;;;;;;;;6340125;22;19998;-68
2022/12/14 05:32:16;;;;;;;14.07;8.47;;;;;;;;;;6339718;22;20011;-68
2022/12/14 05:34:42;;;;;;;13.57;7.47;;;;;;;;;;6339707;22;20006;-69
2022/12/14 05:37:09;;;;;;;13.23;8.63;;;;;;;;;;6340045;22;19999;-68
2022/12/14 05:39:35;;;;;;;13.73;9.07;;;;;;;;;;6339992;22;19999;-69
2022/12/14 05:42:01;;;;;;;14.67;8.93;;;;;;;;;;6339726;22;20348;-68
2022/12/14 05:44:27;;;;;;;13.33;8.27;;;;;;;;;;6339680;22;20066;-68
2022/12/14 05:46:53;;;;;;;14.53;8.60;;;;;;;;;;6339930;22;19999;-68
2022/12/14 05:49:19;;;;;;;11.63;8.40;;;;;;;;;;6339637;22;19995;-68
2022/12/14 05:51:45;;;;;;;13.67;8.63;;;;;;;;;;6339707;22;20018;-69
2022/12/14 05:54:11;;;;;;;14.20;8.73;;;;;;;;;;6339878;22;20321;-68
2022/12/14 05:56:37;;;;;;;12.43;8.37;;;;;;;;;;6340011;22;19995;-68
2022/12/14 05:59:03;;;;;;;12.67;9.07;;;;;;;;;;6339447;22;20009;-68
2022/12/14 06:01:29;;;;;;;11.97;8.53;;;;;;;;;;6339673;22;20021;-68
2022/12/14 06:03:55;;;;;;;13.83;8.30;;;;;;;;;;6339689;22;20030;-68
2022/12/14 06:06:21;;;;;;;14.87;8.40;;;;;;;;;;6339246;22;20003;-68
2022/12/14 06:08:48;;;;;;;14.40;9.20;;;;;;;;;;6340248;22;20007;-68
2022/12/14 06:11:21;;;;;;;12.87;9.00;;;;;;;;;;6339790;22;20459;-68
2022/12/14 06:13:47;;;;;;;14.40;9.07;;;;;;;;;;6339567;22;19999;-68
2022/12/14 06:16:23;;;;;;;11.93;7.93;;;;;;;;;;6339033;22;20298;-68
2022/12/14 06:19:00;;;;;;;12.10;7.90;;;;;;;;;;6339294;22;20025;-68
2022/12/14 06:21:28;;;;;;;12.37;8.50;;;;;;;;;;6339094;22;20006;-69
2022/12/14 06:23:55;;;;;;;14.00;8.37;;;;;;;;;;6339461;22;20010;-68
2022/12/14 06:26:21;;;;;;;12.13;8.47;;;;;;;;;;6339118;22;20323;-68
2022/12/14 06:28:47;;;;;;;12.40;8.47;;;;;;;;;;6339233;22;20002;-68
2022/12/14 06:31:15;;;;;;;11.50;8.57;;;;;;;;;;6338972;22;20021;-68
2022/12/14 06:33:41;;;;;;;12.93;8.67;;;;;;;;;;6339343;22;20003;-68
2022/12/14 06:36:07;;;;;;;12.20;8.90;;;;;;;;;;6339103;22;20003;-68
2022/12/14 06:38:34;;;;;;;12.73;8.23;;;;;;;;;;6364202;22;20412;-68
2022/12/14 06:41:00;;;;;;;17.97;9.07;;;;;;;;;;6339153;22;20443;-68
2022/12/14 06:43:26;;;;;;;12.10;8.30;;;;;;;;;;6339428;22;19999;-69
2022/12/14 06:45:52;;;;;;;12.73;8.20;;;;;;;;;;6339983;22;20009;-69
2022/12/14 06:48:18;;;;;;;12.30;8.20;;;;;;;;;;6339279;22;19998;-69
2022/12/14 06:50:44;;;;;;;13.30;8.30;;;;;;;;;;6338827;22;19995;-69
2022/12/14 06:53:13;;;;;;;14.37;8.60;;;;;;;;;;6339193;22;20129;-68
2022/12/14 06:55:39;;;;;;;12.00;8.30;;;;;;;;;;6339402;22;20360;-68
2022/12/14 06:58:06;;;;;;;12.27;8.10;;;;;;;;;;6339292;22;20082;-68
2022/12/14 07:00:33;;;;;;;12.10;8.13;;;;;;;;;;6339310;22;20002;-69
2022/12/14 07:02:59;;;;;;;14.97;8.70;;;;;;;;;;6338936;22;20078;-68
2022/12/14 07:05:25;;;;;;;12.70;9.23;;;;;;;;;;6339291;22;20302;-68
2022/12/14 07:07:51;;;;;;;12.20;8.57;;;;;;;;;;6339232;22;20441;-68
2022/12/14 07:10:17;;;;;;;13.53;8.93;;;;;;;;;;6338757;22;20006;-68
2022/12/14 07:12:43;;;;;;;14.23;8.63;;;;;;;;;;6338598;22;20370;-68
2022/12/14 07:15:09;;;;;;;13.87;9.17;;;;;;;;;;6338446;22;20020;-68
2022/12/14 07:17:36;;;;;;;14.60;8.40;;;;;;;;;;6338559;22;20088;-67
2022/12/14 07:20:05;;;;;;;13.00;8.60;;;;;;;;;;6337640;22;20059;-69
2022/12/14 07:22:31;;;;;;;13.53;8.40;;;;;;;;;;6336788;22;20055;-68
2022/12/14 07:24:57;;;;;;;12.60;8.67;;;;;;;;;;6337755;22;19994;-65
2022/12/14 07:27:24;;;;;;;17.07;8.33;;;;;;;;;;6338349;22;20006;-65
2022/12/14 07:29:51;;;;;;;12.17;8.27;;;;;;;;;;6338514;22;19999;-68
2022/12/14 07:32:17;;;;;;;12.53;8.70;;;;;;;;;;6336023;22;20312;-68
2022/12/14 07:34:43;;;;;;;13.13;8.57;;;;;;;;;;6338897;22;20052;-68
2022/12/14 07:37:09;;;;;;;11.53;8.13;;;;;;;;;;6338565;22;20325;-67
2022/12/14 07:39:35;;;;;;;13.60;9.13;;;;;;;;;;6338505;22;20429;-67
2022/12/14 07:42:01;;;;;;;12.20;8.83;;;;;;;;;;6338220;22;20017;-67
2022/12/14 07:44:27;;;;;;;11.73;8.73;;;;;;;;;;6337831;22;20413;-67
2022/12/14 07:46:53;;;;;;;12.43;9.17;;;;;;;;;;6338576;22;20328;-66
2022/12/14 07:49:19;;;;;;;13.23;8.83;;;;;;;;;;6338667;22;20026;-70
2022/12/14 07:51:45;;;;;;;13.27;9.33;;;;;;;;;;6337961;22;20444;-66
2022/12/14 07:54:12;;;;;;;14.73;10.00;;;;;;;;;;6337562;22;20059;-67
2022/12/14 07:56:39;;;;;;;13.47;9.93;;;;;;;;;;6336790;22;20081;-67
2022/12/14 07:59:07;;;;;;;12.87;9.70;;;;;;;;;;6337856;22;20006;-66
2022/12/14 08:01:34;;;;;;;13.53;10.07;;;;;;;;;;6337239;22;20025;-73
2022/12/14 08:04:00;;;;;;;18.37;13.80;;;;;;;;;;6337510;22;20048;-72
2022/12/14 08:06:27;;;;;;;16.07;11.97;;;;;;;;;;6335581;22;20078;-76
2022/12/14 08:08:54;;;;;;;17.43;12.87;;;;;;;;;;6338386;22;20030;-71
2022/12/14 08:11:23;;;;;;;18.20;11.33;;;;;;;;;;6338585;22;20027;-70
2022/12/14 08:14:18;;;;;;;17.07;11.50;;;;;;;;;;6338433;22;20006;-74
2022/12/14 08:16:45;;;;;;;17.53;11.17;;;;;;;;;;6336771;22;19999;-74
2022/12/14 08:19:12;;;;;;;14.77;10.03;;;;;;;;;;6338429;22;20026;-71
2022/12/14 08:21:38;;;;;;;15.37;10.13;;;;;;;;;;6336554;22;20443;-72
2022/12/14 08:24:04;;;;;;;16.90;10.23;;;;;;;;;;6336959;22;19999;-71
2022/12/14 08:26:30;;;;;;;18.33;10.27;;;;;;;;;;6336531;22;20090;-70
2022/12/14 08:28:56;;;;;;;15.60;10.00;;;;;;;;;;6337860;22;20073;-71
2022/12/14 08:31:23;;;;;;;17.20;10.77;;;;;;;;;;6337638;22;20006;-71
2022/12/14 08:33:50;;;;;;;14.43;9.83;;;;;;;;;;6337557;22;20041;-71
2022/12/14 08:36:36;;;;;;;18.43;10.07;;;;;;;;;;6338238;22;20057;-72
2022/12/14 08:39:06;;;;;;;14.80;9.47;;;;;;;;;;6338722;22;20045;-71
2022/12/14 08:41:32;;;;;;;14.30;9.83;;;;;;;;;;6335075;22;20053;-72
2022/12/14 08:43:59;;;;;;;15.10;10.17;;;;;;;;;;6337294;22;20066;-71
2022/12/14 08:46:26;;;;;;;13.73;9.17;;;;;;;;;;6337547;22;20383;-74
2022/12/14 08:48:52;;;;;;;14.77;9.43;;;;;;;;;;6337630;22;19995;-73
2022/12/14 08:51:19;;;;;;;14.93;10.07;;;;;;;;;;6337428;22;20362;-72
2022/12/14 08:53:46;;;;;;;16.57;10.47;;;3.80;70.70;;;;;;6337841;22;19995;-71
2022/12/14 08:56:16;;;;;;;13.77;9.80;;;4.60;75.40;;;;;;6339648;22;20041;-71
2022/12/14 08:58:43;;;;;;;16.03;9.90;;;;;;;;;;6340179;22;19998;-71
2022/12/14 09:01:13;;;;;;;13.97;10.17;;;;;;;;;;6340197;22;20041;-72
2022/12/14 09:03:46;;;;;;;15.37;9.70;;;;;;;;;;6340602;22;20007;-70
2022/12/14 09:06:14;;;;;;;14.27;9.68;;;;;;;;;;6340388;22;19999;-73
2022/12/14 09:08:40;;;;;;;14.50;9.43;;;;;;;;;;6340164;22;20003;-73
2022/12/14 09:11:06;;;;;;;16.50;9.97;;;;;;;;;;6340265;22;20017;-74
2022/12/14 09:13:33;;;;;;;18.03;10.63;;;;;;;;;;6340305;22;20063;-73
2022/12/14 09:16:01;;;;;;;26.43;17.57;;;;;;;;;;6340116;22;19998;-73
2022/12/14 09:18:28;;;;;;;64.67;37.60;;;;;;;;;;6339782;22;20352;-73
2022/12/14 09:20:55;;;;;;;35.43;23.93;;;;;;;;;;6340282;22;20029;-74
2022/12/14 09:23:22;;;;;;;20.03;13.70;;;;;;;;;;6340095;22;19995;-73
2022/12/14 09:25:58;;;;;;;22.20;14.00;;;;;;;;;;6340176;22;20002;-75
2022/12/14 09:28:24;;;;;;;16.43;11.70;;;;;;;;;;6339695;22;19999;-75
2022/12/14 09:30:54;;;;;;;16.67;9.43;;;;;;;;;;6339771;22;20003;-75
2022/12/14 09:33:20;;;;;;;17.80;9.20;;;;;;;;;;6338356;22;20055;-75
2022/12/14 09:35:46;;;;;;;9.77;7.63;;;;;;;;;;6340137;22;19999;-75
2022/12/14 09:38:12;;;;;;;10.07;7.20;;;;;;;;;;6339552;22;20101;-76
2022/12/14 09:40:39;;;;;;;11.27;7.53;;;;;;;;;;6339709;22;20045;-75
2022/12/14 09:43:06;;;;;;;16.47;8.23;;;;;;;;;;6339657;22;19994;-75
2022/12/14 09:45:33;;;;;;;22.47;8.23;;;;;;;;;;6339737;22;19999;-75
2022/12/14 09:48:07;;;;;;;18.40;8.50;;;;;;;;;;6339919;22;20055;-75
2022/12/14 09:50:34;;;;;;;14.23;7.97;;;;;;;;;;6339889;22;20009;-76
2022/12/14 09:53:01;;;;;;;14.97;8.83;;;;;;;;;;6339223;22;20014;-76
2022/12/14 09:55:31;;;;;;;12.73;8.63;;;;;;;;;;6339344;22;20003;-76
2022/12/14 09:58:05;;;;;;;15.13;9.03;;;;;;;;;;6339728;22;20010;-76
2022/12/14 10:00:33;;;;;;;13.80;8.03;;;;;;;;;;6339908;22;20027;-76
2022/12/14 10:03:19;;;;;;;15.70;8.83;;;;;;;;;;6339681;22;19995;-76
2022/12/14 10:05:51;;;;;;;12.40;8.57;;;;;;;;;;6339294;22;20002;-76
2022/12/14 10:08:24;;;;;;;13.48;8.60;;;;;;;;;;6339433;22;19999;-76
2022/12/14 10:11:10;;;;;;;15.33;8.23;;;;;;;;;;6339594;22;20367;-75
2022/12/14 10:13:45;;;;;;;18.87;9.00;;;;;;;;;;6339391;22;20374;-77
2022/12/14 10:16:28;;;;;;;15.53;9.00;;;;;;;;;;6338994;22;20073;-75
2022/12/14 10:19:00;;;;;;;15.98;8.63;;;;;;;;;;6339009;22;19998;-75
2022/12/14 10:21:27;;;;;;;14.85;8.32;;;;;;;;;;6339117;22;19998;-76
2022/12/14 10:23:56;;;;;;;14.27;8.70;;;;;;;;;;6339428;22;20323;-75
2022/12/14 10:26:26;;;;;;;15.83;8.97;;;;;;;;;;6339163;22;20006;-76
2022/12/14 10:28:59;;;;;;;17.93;9.57;;;;;;;;;;6337510;22;20331;-76
2022/12/14 10:31:43;;;;;;;11.10;8.18;;;;;;;;;;6339066;22;20007;-76
2022/12/14 10:34:16;;;;;;;16.03;7.97;;;;;;;;;;6339211;22;20006;-75
2022/12/14 10:37:06;;;;;;;12.60;8.20;;;;;;;;;;6339433;22;20007;-75
2022/12/14 10:39:43;;;;;;;13.13;8.47;;;;;;;;;;6295757;22;19999;-76
2022/12/14 10:42:32;;;;;;;11.73;7.77;;;;;;;;;;6339302;22;20042;-76
2022/12/14 10:45:00;;;;;;;16.87;9.17;;;;;;;;;;6295525;22;19998;-76
2022/12/14 10:47:34;;;;;;;12.10;8.50;;;;;;;;;;6339248;22;20010;-71
2022/12/14 10:50:03;;;;;;;11.50;8.10;;;;;;;;;;6339105;22;20057;-75
2022/12/14 10:52:33;;;;;;;13.87;8.93;;;;;;;;;;6339434;22;20007;-76
2022/12/14 10:55:01;;;;;;;13.17;9.60;;;;;;;;;;6337725;22;20367;-75
2022/12/14 10:57:27;;;;;;;15.97;10.67;;;;;;;;;;6339288;22;20027;-75
2022/12/14 10:59:54;;;;;;;16.47;11.00;;;;;;;;;;6338698;22;20001;-75
2022/12/14 11:02:26;;;;;;;21.07;11.43;;;;;;;;;;6338993;22;20015;-75
2022/12/14 11:05:00;;;;;;;16.70;10.90;;;;;;;;;;6337475;22;20377;-76
2022/12/14 11:07:48;;;;;;;18.27;11.43;;;;;;;;;;6337707;22;20329;-73
2022/12/14 11:10:16;;;;;;;19.20;11.17;;;;;;;;;;6338814;22;19999;-75
2022/12/14 11:12:51;;;;;;;18.70;10.90;;;;;;;;;;6338479;22;20006;-75
2022/12/14 11:15:25;;;;;;;16.87;10.90;;;;;;;;;;6338806;22;20005;-75
2022/12/14 11:18:03;;;;;;;18.17;11.90;;;;;;;;;;6338096;22;20076;-75
2022/12/14 11:20:29;;;;;;;16.90;11.27;;;;;;;;;;6338926;22;19999;-74
2022/12/14 11:22:57;;;;;;;20.67;12.53;;;;;;;;;;6338472;22;19999;-76
2022/12/14 11:25:28;;;;;;;20.67;11.97;;;;;;;;;;6339323;22;20006;-74
2022/12/14 11:27:54;;;;;;;14.33;10.77;;;;;;;;;;6337365;22;20002;-75
2022/12/14 11:30:20;;;;;;;16.10;10.67;;;;;;;;;;6338910;22;20023;-74
2022/12/14 11:32:48;;;;;;;14.37;9.93;;;;;;;;;;6338512;22;20011;-74
2022/12/14 11:35:20;;;;;;;15.73;10.13;;;;;;;;;;6339039;22;20003;-74
2022/12/14 11:37:49;;;;;;;14.98;10.27;;;;;;;;;;6338895;22;20001;-74
2022/12/14 11:40:25;;;;;;;15.63;10.50;;;;;;;;;;6338354;22;20002;-75
2022/12/14 11:42:54;;;;;;;14.43;8.90;;;;;;;;;;6337172;22;20002;-76
2022/12/14 11:45:29;;;;;;;12.60;9.70;;;;;;;;;;6338590;22;20023;-76
2022/12/14 11:48:13;;;;;;;13.23;9.37;;;;;;;;;;6338675;22;20037;-75
2022/12/14 11:50:40;;;;;;;13.87;8.50;;;;;;;;;;6339206;22;20005;-75
2022/12/14 11:53:09;;;;;;;14.03;9.30;;;;;;;;;;6338172;22;20082;-74
2022/12/14 11:55:37;;;;;;;12.83;8.43;;;;;;;;;;6338678;22;20002;-76
2022/12/14 11:58:04;;;;;;;15.00;8.73;;;;;;;;;;6338539;22;20009;-75
2022/12/14 12:00:51;;;;;;;16.93;9.43;;;;;;;;;;6338517;22;19999;-75
2022/12/14 12:03:35;;;;;;;14.80;9.77;;;;;;;;;;6338378;22;20093;-75
2022/12/14 12:06:04;;;;;;;12.87;9.40;;;;;;;;;;6338687;22;20006;-75
2022/12/14 12:08:32;;;;;;;13.83;8.90;;;;;;;;;;6338343;22;20003;-76
2022/12/14 12:11:01;;;;;;;16.27;10.47;;;;;;;;;;6335499;22;20007;-75
2022/12/14 12:13:32;;;;;;;13.17;8.67;;;;;;;;;;6335715;22;20068;-75
2022/12/14 12:16:00;;;;;;;13.67;9.60;;;;;;;;;;6336910;22;20363;-74
2022/12/14 12:18:35;;;;;;;13.30;9.10;;;;;;;;;;6337859;22;20006;-75
2022/12/14 12:21:09;;;;;;;14.90;10.17;;;;;;;;;;6337752;22;19998;-75
2022/12/14 12:23:38;;;;;;;12.00;8.30;;;;;;;;;;6337575;22;20002;-75
2022/12/14 12:26:12;;;;;;;12.17;8.10;;;;;;;;;;6337326;22;20072;-75
2022/12/14 12:28:42;;;;;;;13.27;8.30;;;;;;;;;;6337881;22;20005;-75
2022/12/14 12:31:11;;;;;;;14.83;9.97;;;;;;;;;;6339452;22;20451;-74
2022/12/14 12:33:44;;;;;;;13.20;9.07;;;;;;;;;;6339334;22;20059;-75
2022/12/14 12:36:10;;;;;;;11.98;9.20;;;;;;;;;;6339322;22;19994;-74
2022/12/14 12:38:36;;;;;;;10.87;8.43;;;;;;;;;;6339553;22;20341;-74
2022/12/14 12:41:15;;;;;;;12.53;8.80;;;;;;;;;;6340449;22;19995;-74
2022/12/14 12:43:47;;;;;;;13.13;9.23;;;;;;;;;;6340542;22;20486;-75
2022/12/14 12:46:16;;;;;;;13.82;9.50;;;;;;;;;;6340333;22;20002;-73
2022/12/14 12:48:54;;;;;;;12.37;7.60;;;;;;;;;;6340560;22;20467;-73
2022/12/14 12:51:26;;;;;;;12.60;7.77;;;;;;;;;;6338187;22;20006;-73
2022/12/14 12:53:55;;;;;;;11.70;7.67;;;;;;;;;;6340748;22;20060;-73
2022/12/14 12:56:41;;;;;;;11.40;8.50;;;;;;;;;;6340189;22;20005;-73
2022/12/14 12:59:14;;;;;;;11.33;7.80;;;;;;;;;;6324346;22;20028;-75
2022/12/14 13:01:43;;;;;;;17.80;8.27;;;;;;;;;;6340190;22;20237;-74
2022/12/14 13:04:12;;;;;;;11.57;8.23;;;;;;;;;;6340075;22;20008;-74
2022/12/14 13:07:01;;;;;;;14.13;8.43;;;;;;;;;;6340348;22;20361;-75
2022/12/14 13:09:27;;;;;;;12.17;7.70;;;;;;;;;;6340195;22;20025;-74
2022/12/14 13:11:53;;;;;;;10.60;7.97;;;;;;;;;;6340132;22;20018;-74
2022/12/14 13:14:25;;;;;;;12.90;7.60;;;;;;;;;;6338721;22;20037;-75
2022/12/14 13:16:51;;;;;;;11.15;7.47;;;;;;;;;;6340095;22;20378;-75
2022/12/14 13:19:34;;;;;;;16.20;7.53;;;;;;;;;;6339835;22;19998;-75
2022/12/14 13:22:00;;;;;;;12.80;7.97;;;;;;;;;;6340336;22;20069;-75
2022/12/14 13:24:26;;;;;;;18.40;9.00;;;;;;;;;;6340079;22;20010;-75
2022/12/14 13:27:08;;;;;;;12.67;8.80;;;;;;;;;;6338607;22;20010;-76
2022/12/14 13:29:34;;;;;;;12.70;8.70;;;;;;;;;;6339951;22;19998;-74
2022/12/14 13:32:29;;;;;;;11.43;8.37;;;;;;;;;;6339974;22;20018;-75
2022/12/14 13:35:01;;;;;;;13.07;8.47;;;;;;;;;;6256056;22;20009;-75
2022/12/14 13:37:27;;;;;;;14.68;8.20;;;;;;;;;;6340105;22;20368;-74
2022/12/14 13:40:25;;;;;;;13.57;8.07;;;;;;;;;;6339943;22;20002;-75
2022/12/14 13:43:14;;;;;;;13.57;9.00;;;;;;;;;;6288245;22;20006;-74
2022/12/14 13:45:45;;;;;;;11.33;8.37;;;;;;;;;;6295960;22;20003;-75
2022/12/14 13:48:22;;;;;;;13.43;8.73;;;;;;;;;;6338195;22;20375;-75
2022/12/14 13:50:53;;;;;;;12.03;8.30;;;;;;;;;;6339950;22;20022;-75
2022/12/14 13:53:38;;;;;;;11.50;8.63;;;;;;;;;;6339915;22;20030;-74
2022/12/14 13:56:04;;;;;;;12.93;8.47;;;;;;;;;;6339689;22;20009;-76
2022/12/14 13:58:33;;;;;;;13.37;8.50;;;;;;;;;;6339662;22;19999;-75
2022/12/14 14:01:00;;;;;;;29.83;18.20;;;;;;;;;;6339433;22;20015;-75
2022/12/14 14:03:35;;;;;;;23.87;14.60;;;;;;;;;;6339661;22;19995;-75
2022/12/14 14:06:09;;;;;;;18.53;11.37;;;;;;;;;;6337980;22;20010;-74
2022/12/14 14:08:36;;;;;;;18.60;12.17;;;;;;;;;;6339907;22;20378;-74
2022/12/14 14:11:20;;;;;;;21.40;11.63;;;;;;;;;;6339160;22;20056;-73
2022/12/14 14:13:46;;;;;;;16.80;11.77;;;;;;;;;;6339309;22;20438;-76
2022/12/14 14:16:15;;;;;;;16.30;10.47;;;;;;;;;;6339217;22;19999;-76
2022/12/14 14:19:11;;;;;;;16.20;11.23;;;;;;;;;;6339010;22;20002;-75
2022/12/14 14:21:45;;;;;;;14.63;10.77;;;;;;;;;;6325042;22;19999;-75
2022/12/14 14:24:14;;;;;;;16.37;10.83;;;;;;;;;;6338693;22;20070;-75
2022/12/14 14:26:56;;;;;;;18.20;11.27;;;;;;;;;;6338942;22;20001;-75
2022/12/14 14:29:27;;;;;;;15.27;11.27;;;;;;;;;;6338928;22;20425;-74
2022/12/14 14:31:57;;;;;;;21.50;13.43;;;;;;;;;;6338796;22;20364;-75
2022/12/14 14:34:29;;;;;;;19.07;12.93;;;;;;;;;;6338865;22;20010;-74
2022/12/14 14:36:55;;;;;;;20.15;14.02;;;;;;;;;;6339154;22;21057;-74
2022/12/14 14:39:35;;;;;;;19.60;13.67;;;;;;;;;;6336908;22;19999;-75
2022/12/14 14:42:03;;;;;;;20.47;12.83;;;;;;;;;;6337794;22;20085;-74